Time;durP1;ratioP1;P1;durP2;ratioP2;P2;SDS_P1;SDS_P2;PMS_P1;PMS_P2;Temp;Humidity;BMP_temperature;BMP_pressure;BME280_temperature;BME280_humidity;BME280_pressure;Samples;Min_cycle;Max_cycle;Signal;HPM_P1;HPM_P2
2024/01/14 00:00:21;;;;;;;5.03;4.75;;;;;;;-2.08;100.00;95351.47;4357427;32;20275;-60
2024/01/14 00:02:47;;;;;;;5.67;5.13;;;;;;;-2.11;100.00;95356.31;4352743;32;20243;-60
2024/01/14 00:05:12;;;;;;;8.70;6.10;;;;;;;-2.17;100.00;95357.16;4346745;32;20189;-60
2024/01/14 00:07:37;;;;;;;5.03;4.53;;;;;;;-2.19;100.00;95354.78;4342456;32;20181;-61
2024/01/14 00:10:05;;;;;;;7.67;3.83;;;;;;;-1.95;100.00;95354.97;4352998;32;20180;-60
2024/01/14 00:12:33;;;;;;;5.40;4.85;;;;;;;-2.22;100.00;95349.19;4332030;32;20260;-60
2024/01/14 00:15:01;;;;;;;6.43;5.97;;;;;;;-2.14;100.00;95349.75;4369174;32;20213;-60
2024/01/14 00:17:27;;;;;;;3.83;3.62;;;;;;;-2.11;100.00;95351.91;4347626;32;20190;-61
2024/01/14 00:19:54;;;;;;;5.85;5.35;;;;;;;-2.07;100.00;95347.06;4346693;32;20238;-60
2024/01/14 00:22:19;;;;;;;4.95;4.43;;;;;;;-1.95;100.00;95345.38;4363027;32;20207;-60
2024/01/14 00:24:46;;;;;;;15.27;7.30;;;;;;;-2.08;100.00;95343.66;4366306;32;20181;-61
2024/01/14 00:27:13;;;;;;;4.87;4.68;;;;;;;-2.31;100.00;95348.69;4319925;32;20208;-61
2024/01/14 00:29:39;;;;;;;5.65;5.22;;;;;;;-2.15;100.00;95335.16;4323859;32;20204;-60
2024/01/14 00:32:07;;;;;;;7.07;6.55;;;;;;;-2.18;100.00;95338.19;4361838;32;20203;-61
2024/01/14 00:34:35;;;;;;;4.87;4.57;;;;;;;-2.05;100.00;95319.06;4331931;32;20223;-61
2024/01/14 00:37:02;;;;;;;7.03;4.53;;;;;;;-2.23;100.00;95311.25;4351606;32;20200;-60
2024/01/14 00:39:28;;;;;;;5.03;4.68;;;;;;;-2.40;100.00;95298.00;4344595;32;20274;-60
2024/01/14 00:41:55;;;;;;;7.90;7.18;;;;;;;-2.49;100.00;95297.47;4358200;32;20189;-60
2024/01/14 00:44:21;;;;;;;6.72;6.18;;;;;;;-2.28;100.00;95288.50;4347533;32;20189;-60
2024/01/14 00:46:48;;;;;;;9.52;5.68;;;;;;;-2.33;100.00;95288.38;4351189;32;20189;-60
2024/01/14 00:49:15;;;;;;;4.70;4.30;;;;;;;-2.38;100.00;95283.00;4317834;32;20181;-60
2024/01/14 00:51:41;;;;;;;5.93;5.62;;;;;;;-2.47;100.00;95266.09;4293216;32;20196;-60
2024/01/14 00:54:06;;;;;;;4.85;4.47;;;;;;;-2.21;100.00;95268.47;4336072;32;20211;-60
2024/01/14 00:56:33;;;;;;;6.20;5.70;;;;;;;-1.97;100.00;95268.63;4355351;32;20224;-60
2024/01/14 00:59:01;;;;;;;7.18;5.40;;;;;;;-2.28;100.00;95272.91;4351533;32;20197;-61
2024/01/14 01:01:27;;;;;;;8.18;5.57;;;;;;;-2.27;100.00;95271.91;4328848;32;20205;-60
2024/01/14 01:03:53;;;;;;;4.75;4.45;;;;;;;-2.05;100.00;95266.31;4341070;32;20250;-61
2024/01/14 01:06:20;;;;;;;6.50;5.97;;;;;;;-2.21;100.00;95263.25;4342900;32;20188;-60
2024/01/14 01:08:50;;;;;;;8.20;7.30;;;;;;;-1.96;100.00;95257.22;4356897;32;20210;-60
2024/01/14 01:11:18;;;;;;;6.97;6.30;;;;;;;-1.73;100.00;95239.97;4362283;32;20189;-60
2024/01/14 01:13:44;;;;;;;5.65;5.35;;;;;;;-1.39;100.00;95246.31;4334617;32;20228;-60
2024/01/14 01:16:09;;;;;;;5.72;5.28;;;;;;;-1.52;100.00;95248.31;4332726;32;20193;-61
2024/01/14 01:18:36;;;;;;;10.43;7.33;;;;;;;-1.81;100.00;95247.25;4339704;32;20260;-61
2024/01/14 01:21:04;;;;;;;9.13;5.22;;;;;;;-1.92;100.00;95250.59;4323103;32;20178;-60
2024/01/14 01:23:31;;;;;;;7.60;7.10;;;;;;;-2.16;100.00;95247.84;4339036;32;20170;-60
2024/01/14 01:25:58;;;;;;;5.50;5.03;;;;;;;-2.30;100.00;95246.38;4355917;32;20177;-61
2024/01/14 01:28:25;;;;;;;5.90;5.40;;;;;;;-2.39;100.00;95252.06;4355021;32;20292;-60
2024/01/14 01:30:50;;;;;;;10.60;5.15;;;;;;;-2.19;100.00;95245.66;4328331;32;20189;-60
2024/01/14 01:33:17;;;;;;;7.87;6.93;;;;;;;-2.13;100.00;95241.41;4341857;32;20224;-60
2024/01/14 01:35:44;;;;;;;9.23;6.45;;;;;;;-2.30;100.00;95249.00;4338102;32;20232;-60
2024/01/14 01:38:09;;;;;;;6.95;5.95;;;;;;;-2.17;100.00;95233.25;4365197;32;20203;-60
2024/01/14 01:40:37;;;;;;;5.60;5.20;;;;;;;-2.09;100.00;95234.78;4344771;32;20202;-60
2024/01/14 01:43:05;;;;;;;6.37;5.80;;;;;;;-1.93;100.00;95223.81;4345158;32;20233;-61
2024/01/14 01:45:35;;;;;;;6.70;5.97;;;;;;;-2.08;100.00;95239.75;4350409;32;20192;-60
2024/01/14 01:48:06;;;;;;;5.40;4.93;;;;;;;-1.90;100.00;95238.97;4336677;32;20185;-60
2024/01/14 01:50:35;;;;;;;6.82;6.22;;;;;;;-2.21;100.00;95226.09;4357607;32;20192;-61
2024/01/14 01:53:02;;;;;;;6.65;5.65;;;;;;;-2.31;100.00;95223.22;4351240;32;20296;-60
2024/01/14 01:55:28;;;;;;;7.72;7.12;;;;;;;-2.24;100.00;95222.13;4364800;32;20275;-60
2024/01/14 01:57:55;;;;;;;3.92;3.72;;;;;;;-2.29;100.00;95218.62;4341268;32;20264;-60
2024/01/14 02:00:22;;;;;;;8.82;6.60;;;;;;;-2.11;100.00;95227.19;4361478;32;20184;-60
2024/01/14 02:02:49;;;;;;;5.57;4.72;;;;;;;-2.03;100.00;95223.50;4357664;32;20193;-60
2024/01/14 02:05:19;;;;;;;5.47;4.95;;;;;;;-2.14;100.00;95216.44;4328607;32;20236;-60
2024/01/14 02:07:48;;;;;;;5.03;4.72;;;;;;;-1.93;100.00;95217.81;4363718;32;20259;-60
2024/01/14 02:10:14;;;;;;;5.07;4.62;;;;;;;-2.14;100.00;95200.84;4382682;32;20176;-60
2024/01/14 02:12:40;;;;;;;6.50;6.00;;;;;;;-2.00;100.00;95210.09;4360628;32;20205;-61
2024/01/14 02:15:07;;;;;;;8.90;6.87;;;;;;;-2.42;100.00;95194.34;4378224;32;20188;-61
2024/01/14 02:17:33;;;;;;;8.32;6.18;;;;;;;-2.44;100.00;95192.97;4333215;32;20292;-61
2024/01/14 02:20:00;;;;;;;8.63;7.62;;;;;;;-2.27;100.00;95196.59;4353711;32;20192;-60
2024/01/14 02:22:41;;;;;;;3.58;3.33;;;;;;;-2.30;100.00;95178.06;4370785;32;20188;-60
2024/01/14 02:25:07;;;;;;;6.00;5.50;;;;;;;-2.32;100.00;95180.88;4351980;32;20234;-60
2024/01/14 02:27:33;;;;;;;4.87;4.40;;;;;;;-2.16;100.00;95167.31;4331429;32;20208;-61
2024/01/14 02:30:00;;;;;;;5.55;5.12;;;;;;;-2.16;100.00;95172.50;4346256;32;20223;-60
2024/01/14 02:32:27;;;;;;;6.97;6.50;;;;;;;-2.38;100.00;95171.34;4375703;32;20199;-60
2024/01/14 02:34:52;;;;;;;4.53;4.07;;;;;;;-2.36;100.00;95161.53;4372848;32;20390;-60
2024/01/14 02:37:23;;;;;;;5.90;5.33;;;;;;;-2.30;100.00;95160.69;4363490;32;20185;-60
2024/01/14 02:39:48;;;;;;;5.57;4.95;;;;;;;-2.31;100.00;95164.28;4354408;32;20193;-60
2024/01/14 02:42:15;;;;;;;6.77;6.23;;;;;;;-2.35;100.00;95155.34;4350327;32;20509;-60
2024/01/14 02:44:40;;;;;;;5.95;5.60;;;;;;;-2.41;100.00;95158.78;4362637;32;20181;-60
2024/01/14 02:47:07;;;;;;;4.57;4.27;;;;;;;-2.25;100.00;95152.22;4368633;32;20216;-61
2024/01/14 02:49:34;;;;;;;11.02;5.35;;;;;;;-2.15;100.00;95152.50;4343093;32;20215;-61
2024/01/14 02:51:59;;;;;;;5.22;4.72;;;;;;;-2.37;100.00;95154.75;4365250;32;20189;-60
2024/01/14 02:54:26;;;;;;;4.93;4.63;;;;;;;-2.19;100.00;95146.94;4358528;32;20326;-60
2024/01/14 02:56:53;;;;;;;6.85;6.40;;;;;;;-2.13;100.00;95148.69;4353241;32;20180;-60
2024/01/14 02:59:19;;;;;;;4.50;4.07;;;;;;;-2.12;100.00;95152.06;4367939;32;20207;-60
2024/01/14 03:01:47;;;;;;;5.72;4.43;;;;;;;-2.18;100.00;95164.13;4381369;32;20219;-60
2024/01/14 03:04:14;;;;;;;4.10;3.80;;;;;;;-2.17;100.00;95160.53;4362313;32;20181;-60
2024/01/14 03:06:41;;;;;;;5.10;4.75;;;;;;;-2.14;100.00;95149.69;4335112;32;20197;-60
2024/01/14 03:09:09;;;;;;;4.50;4.25;;;;;;;-2.13;100.00;95143.50;4339388;32;20275;-60
2024/01/14 03:11:35;;;;;;;5.25;4.80;;;;;;;-2.49;100.00;95136.50;4340035;32;20186;-61
2024/01/14 03:14:02;;;;;;;4.62;4.07;;;;;;;-2.43;100.00;95140.03;4337785;32;20260;-60
2024/01/14 03:16:28;;;;;;;6.35;5.72;;;;;;;-2.39;100.00;95130.81;4365944;32;20196;-60
2024/01/14 03:18:55;;;;;;;4.37;4.07;;;;;;;-2.35;100.00;95125.97;4352525;32;20185;-60
2024/01/14 03:21:20;;;;;;;8.18;6.53;;;;;;;-2.73;100.00;95129.59;4328390;32;20244;-60
2024/01/14 03:23:49;;;;;;;5.13;4.73;;;;;;;-2.70;100.00;95123.16;4362711;32;20193;-60
2024/01/14 03:26:15;;;;;;;6.28;5.62;;;;;;;-2.72;100.00;95132.97;4334203;32;20200;-60
2024/01/14 03:28:41;;;;;;;6.45;5.93;;;;;;;-2.81;100.00;95120.25;4354781;32;20181;-60
2024/01/14 03:31:15;;;;;;;5.83;5.40;;;;;;;-2.95;100.00;95112.84;4353980;32;20230;-60
2024/01/14 03:33:43;;;;;;;6.22;5.72;;;;;;;-2.70;100.00;95107.59;4350589;32;20275;-60
2024/01/14 03:36:15;;;;;;;4.03;3.72;;;;;;;-2.55;100.00;95101.03;4315518;32;20256;-61
2024/01/14 03:38:42;;;;;;;4.45;4.25;;;;;;;-2.33;100.00;95103.97;4337267;32;20228;-61
2024/01/14 03:41:08;;;;;;;4.85;4.40;;;;;;;-2.26;100.00;95098.69;4331708;32;20189;-60
2024/01/14 03:43:33;;;;;;;5.03;4.53;;;;;;;-2.35;100.00;95100.00;4353263;32;20215;-60
2024/01/14 03:45:58;;;;;;;5.13;4.67;;;;;;;-2.70;100.00;95107.59;4352117;32;20177;-60
2024/01/14 03:48:25;;;;;;;4.17;3.87;;;;;;;-2.64;100.00;95111.91;4358436;32;20180;-60
2024/01/14 03:50:51;;;;;;;3.75;3.55;;;;;;;-2.56;100.00;95098.66;4367619;32;20184;-60
2024/01/14 03:53:18;;;;;;;5.47;4.72;;;;;;;-2.88;100.00;95105.75;4338654;32;20213;-60
2024/01/14 03:55:46;;;;;;;5.47;5.10;;;;;;;-2.73;100.00;95111.41;4352497;32;20267;-60
2024/01/14 03:58:14;;;;;;;14.60;5.43;;;;;;;-2.63;100.00;95105.69;4362305;32;20257;-60
2024/01/14 04:00:41;;;;;;;6.00;5.47;;;;;;;-2.65;100.00;95105.91;4355925;32;20208;-61
2024/01/14 04:03:08;;;;;;;5.97;5.57;;;;;;;-2.63;100.00;95105.69;4362654;32;20212;-62
2024/01/14 04:05:33;;;;;;;5.97;5.60;;;;;;;-2.88;100.00;95103.16;4341710;32;20185;-60
2024/01/14 04:07:58;;;;;;;6.63;6.13;;;;;;;-2.86;100.00;95094.16;4328723;32;20207;-60
2024/01/14 04:10:25;;;;;;;8.50;4.83;;;;;;;-2.94;100.00;95102.25;4359899;32;20189;-60
2024/01/14 04:12:52;;;;;;;4.28;4.05;;;;;;;-2.64;100.00;95096.34;4338813;32;20207;-61
2024/01/14 04:15:22;;;;;;;5.22;4.85;;;;;;;-2.94;100.00;95097.06;4373426;32;20189;-60
2024/01/14 04:17:49;;;;;;;8.63;6.62;;;;;;;-2.89;100.00;95089.41;4372210;32;20208;-60
2024/01/14 04:20:15;;;;;;;6.05;5.55;;;;;;;-2.70;100.00;95092.03;4351390;32;20188;-60
2024/01/14 04:22:41;;;;;;;6.30;5.70;;;;;;;-2.79;100.00;95084.50;4364235;32;20192;-60
2024/01/14 04:25:08;;;;;;;5.00;4.80;;;;;;;-3.05;100.00;95089.97;4352623;32;20219;-60
2024/01/14 04:27:34;;;;;;;6.80;6.35;;;;;;;-3.13;100.00;95093.66;4342403;32;20283;-60
2024/01/14 04:30:04;;;;;;;4.40;3.80;;;;;;;-2.94;100.00;95094.47;4356833;32;20180;-61
2024/01/14 04:32:31;;;;;;;5.53;5.03;;;;;;;-2.84;100.00;95093.94;4330070;32;20298;-60
2024/01/14 04:35:00;;;;;;;4.60;4.10;;;;;;;-2.70;100.00;95092.03;4339871;32;20255;-60
2024/01/14 04:37:27;;;;;;;4.68;4.37;;;;;;;-2.47;100.00;95084.34;4353218;32;20275;-61
2024/01/14 04:39:55;;;;;;;6.72;6.05;;;;;;;-2.55;100.00;95079.47;4346241;32;20338;-60
2024/01/14 04:42:28;;;;;;;6.50;5.93;;;;;;;-2.67;100.00;95086.38;4364921;32;20202;-58
2024/01/14 04:44:54;;;;;;;5.20;4.72;;;;;;;-2.41;100.00;95086.09;4324217;32;20349;-59
2024/01/14 04:47:20;;;;;;;8.97;6.57;;;;;;;-2.55;100.00;95079.47;4370457;32;20224;-58
2024/01/14 04:49:47;;;;;;;5.57;5.28;;;;;;;-2.54;100.00;95081.06;4340342;32;20211;-58
2024/01/14 04:52:17;;;;;;;7.15;6.47;;;;;;;-2.71;100.00;95080.84;4344421;32;20185;-58
2024/01/14 04:54:43;;;;;;;6.00;5.57;;;;;;;-2.83;100.00;95087.75;4338716;32;20256;-58
2024/01/14 04:57:08;;;;;;;4.28;3.87;;;;;;;-2.66;100.00;95087.97;4363727;32;20195;-59
2024/01/14 04:59:34;;;;;;;13.10;5.57;;;;;;;-2.58;100.00;95096.25;4355785;32;20185;-58
2024/01/14 05:02:02;;;;;;;4.27;4.07;;;;;;;-2.69;100.00;95094.38;4355211;32;20196;-58
2024/01/14 05:04:28;;;;;;;7.35;6.70;;;;;;;-2.63;100.00;95097.91;4306672;32;20221;-59
2024/01/14 05:06:53;;;;;;;5.63;5.20;;;;;;;-2.70;100.00;95100.56;4321813;32;20209;-58
2024/01/14 05:09:20;;;;;;;5.50;4.43;;;;;;;-2.61;100.00;95098.50;4378344;32;20193;-58
2024/01/14 05:11:47;;;;;;;5.68;5.20;;;;;;;-2.54;100.00;95100.03;4371025;32;20188;-58
2024/01/14 05:14:14;;;;;;;10.83;7.60;;;;;;;-2.69;100.00;95094.38;4312768;32;20254;-58
2024/01/14 05:16:39;;;;;;;6.22;5.47;;;;;;;-2.37;100.00;95095.03;4349099;32;20269;-57
2024/01/14 05:19:05;;;;;;;5.30;4.53;;;;;;;-2.29;100.00;95086.94;4337568;32;20202;-58
2024/01/14 05:21:31;;;;;;;5.37;4.87;;;;;;;-2.38;100.00;95090.06;4351231;32;20232;-58
2024/01/14 05:23:58;;;;;;;5.18;4.87;;;;;;;-2.34;100.00;95086.00;4362576;32;20192;-58
2024/01/14 05:26:24;;;;;;;8.07;6.95;;;;;;;-2.22;100.00;95086.84;4365956;32;20272;-59
2024/01/14 05:28:51;;;;;;;7.07;6.32;;;;;;;-2.16;100.00;95088.56;4358572;32;20200;-58
2024/01/14 05:31:18;;;;;;;7.12;6.30;;;;;;;-2.02;100.00;95083.97;4338049;32;20190;-58
2024/01/14 05:33:43;;;;;;;8.88;5.93;;;;;;;-1.96;100.00;95091.69;4368232;32;20208;-58
2024/01/14 05:36:10;;;;;;;7.53;6.77;;;;;;;-1.91;100.00;95083.25;4332892;32;20201;-59
2024/01/14 05:38:36;;;;;;;6.53;5.93;;;;;;;-1.87;100.00;95079.97;4361345;32;20259;-58
2024/01/14 05:41:03;;;;;;;6.43;5.62;;;;;;;-1.85;100.00;95077.16;4348532;32;20177;-58
2024/01/14 05:43:28;;;;;;;8.18;7.40;;;;;;;-1.72;100.00;95082.16;4365044;32;20177;-58
2024/01/14 05:45:55;;;;;;;6.13;5.67;;;;;;;-1.81;100.00;95088.69;4365995;32;20200;-58
2024/01/14 05:48:22;;;;;;;5.28;4.57;;;;;;;-1.81;100.00;95099.09;4357490;32;20188;-58
2024/01/14 05:50:48;;;;;;;6.28;5.72;;;;;;;-1.85;100.00;95095.34;4348314;32;20197;-58
2024/01/14 05:53:14;;;;;;;5.87;5.43;;;;;;;-1.90;100.00;95095.22;4357134;32;20203;-59
2024/01/14 05:55:41;;;;;;;6.10;5.67;;;;;;;-1.72;100.00;95089.97;4335949;32;20376;-58
2024/01/14 05:58:08;;;;;;;6.55;6.10;;;;;;;-1.88;100.00;95096.59;4355227;32;20176;-58
2024/01/14 06:00:57;;;;;;;7.60;7.07;;;;;;;-1.84;100.00;95092.53;4349390;32;20271;-59
2024/01/14 06:03:23;;;;;;;4.20;3.97;;;;;;;-1.68;100.00;95095.53;4352246;32;20189;-57
2024/01/14 06:05:51;;;;;;;6.97;5.37;;;;;;;-1.54;100.00;95082.09;4347518;32;20203;-58
2024/01/14 06:08:18;;;;;;;9.50;5.45;;;;;;;-1.78;100.00;95088.25;4349399;32;20192;-58
2024/01/14 06:10:43;;;;;;;7.05;6.45;;;;;;;-1.93;100.00;95099.06;4349713;32;20234;-58
2024/01/14 06:13:08;;;;;;;11.10;5.83;;;;;;;-1.78;100.00;95094.25;4328596;32;20264;-57
2024/01/14 06:15:34;;;;;;;4.00;3.80;;;;;;;-1.92;100.00;95100.66;4359384;32;20236;-58
2024/01/14 06:18:00;;;;;;;5.10;4.87;;;;;;;-1.97;100.00;95104.91;4362842;32;20219;-58
2024/01/14 06:20:28;;;;;;;4.62;4.35;;;;;;;-2.08;100.00;95107.22;4363714;32;20200;-58
2024/01/14 06:22:54;;;;;;;4.50;4.20;;;;;;;-2.27;100.00;95110.88;4352544;32;20189;-58
2024/01/14 06:25:20;;;;;;;8.07;4.80;;;;;;;-2.32;100.00;95110.75;4344530;32;20268;-58
2024/01/14 06:27:46;;;;;;;4.72;4.35;;;;;;;-2.29;100.00;95117.31;4344284;32;20193;-58
2024/01/14 06:30:13;;;;;;;7.07;4.97;;;;;;;-2.15;100.00;95111.72;4336188;32;20249;-58
2024/01/14 06:32:40;;;;;;;4.95;3.55;;;;;;;-2.14;100.00;95113.31;4354212;32;20222;-58
2024/01/14 06:35:06;;;;;;;10.43;5.25;;;;;;;-2.18;100.00;95112.16;4334284;32;20238;-58
2024/01/14 06:37:32;;;;;;;6.57;4.53;;;;;;;-2.17;100.00;95131.16;4335480;32;20189;-58
2024/01/14 06:39:58;;;;;;;6.07;5.50;;;;;;;-2.19;100.00;95110.59;4337190;32;20348;-58
2024/01/14 06:42:27;;;;;;;7.80;6.87;;;;;;;-2.26;100.00;95111.66;4351006;32;20284;-58
2024/01/14 06:44:53;;;;;;;6.82;3.62;;;;;;;-2.28;100.00;95114.47;4347964;32;20282;-58
2024/01/14 06:47:21;;;;;;;10.43;6.73;;;;;;;-2.45;100.00;95116.09;4345934;32;20223;-58
2024/01/14 06:49:47;;;;;;;5.35;4.80;;;;;;;-2.42;100.00;95110.47;4345397;32;20228;-58
2024/01/14 06:52:14;;;;;;;7.75;5.80;;;;;;;-2.40;100.00;95118.03;4363782;32;20204;-58
2024/01/14 06:54:40;;;;;;;4.50;4.30;;;;;;;-2.44;100.00;95107.28;4336636;32;20197;-58
2024/01/14 06:57:06;;;;;;;4.87;4.43;;;;;;;-2.86;100.00;95125.28;4331510;32;20188;-58
2024/01/14 06:59:32;;;;;;;4.43;4.13;;;;;;;-2.61;100.00;95119.25;4365987;32;20264;-58
2024/01/14 07:01:59;;;;;;;3.47;3.28;;;;;;;-2.72;100.00;95115.59;4360845;32;20239;-58
2024/01/14 07:04:24;;;;;;;6.55;5.68;;;;;;;-2.64;100.00;95117.09;4357835;32;20272;-58
2024/01/14 07:06:50;;;;;;;5.27;4.93;;;;;;;-2.80;100.00;95119.25;4331849;32;20211;-58
2024/01/14 07:09:15;;;;;;;6.33;5.80;;;;;;;-2.80;100.00;95116.66;4368863;32;20220;-58
2024/01/14 07:11:43;;;;;;;5.07;4.33;;;;;;;-2.73;100.00;95110.63;4359595;32;20208;-58
2024/01/14 07:14:10;;;;;;;5.53;5.03;;;;;;;-2.86;100.00;95111.53;4346546;32;20174;-58
2024/01/14 07:16:38;;;;;;;3.37;3.20;;;;;;;-2.79;100.00;95126.03;4372433;32;20177;-59
2024/01/14 07:19:04;;;;;;;3.22;3.03;;;;;;;-2.69;100.00;95122.13;4375211;32;20203;-61
2024/01/14 07:21:31;;;;;;;4.50;4.30;;;;;;;-2.60;100.00;95118.25;4360334;32;20196;-59
2024/01/14 07:23:57;;;;;;;4.05;3.78;;;;;;;-2.78;100.00;95127.62;4361629;32;20185;-58
2024/01/14 07:26:27;;;;;;;3.93;3.63;;;;;;;-2.67;100.00;95126.09;4359836;32;20327;-58
2024/01/14 07:28:53;;;;;;;5.65;4.30;;;;;;;-2.83;100.00;95130.06;4351746;32;20185;-59
2024/01/14 07:31:22;;;;;;;6.20;3.97;;;;;;;-2.76;100.00;95132.59;4358602;32;20193;-58
2024/01/14 07:33:50;;;;;;;4.40;3.42;;;;;;;-2.48;100.00;95126.91;4318686;32;20201;-58
2024/01/14 07:36:16;;;;;;;4.78;4.37;;;;;;;-2.58;100.00;95119.62;4328719;32;20265;-58
2024/01/14 07:38:44;;;;;;;5.30;4.80;;;;;;;-2.60;100.00;95128.63;4304686;32;20222;-58
2024/01/14 07:41:13;;;;;;;4.62;4.22;;;;;;;-2.29;100.00;95119.91;4349349;32;20260;-58
2024/01/14 07:43:40;;;;;;;4.47;4.12;;;;;;;-1.89;100.00;95112.41;4346522;32;20197;-59
2024/01/14 07:46:09;;;;;;;5.87;5.40;;;;;;;-2.02;100.00;95108.16;4344474;32;20193;-58
2024/01/14 07:48:37;;;;;;;5.22;4.90;;;;;;;-2.36;100.00;95112.19;4349362;32;20315;-58
2024/01/14 07:51:05;;;;;;;4.37;4.15;;;;;;;-2.56;100.00;95120.22;4345184;32;20181;-59
2024/01/14 07:53:31;;;;;;;7.03;5.93;;;;;;;-2.52;100.00;95125.78;4372295;32;20180;-58
2024/01/14 07:55:58;;;;;;;5.80;5.30;;;;;;;-2.54;100.00;95127.78;4323334;32;20233;-58
2024/01/14 07:58:24;;;;;;;4.30;4.07;;;;;;;-2.20;100.00;95110.81;4344254;32;20371;-59
2024/01/14 08:00:49;;;;;;;6.12;5.20;;;;;;;-2.34;100.00;95104.97;4369124;32;20277;-58
2024/01/14 08:03:16;;;;;;;5.43;5.13;;;;;;;-2.45;100.00;95116.88;4349183;32;20192;-58
2024/01/14 08:05:42;;;;;;;3.42;3.33;;;;;;;-2.53;100.00;95111.19;4332206;32;20189;-59
2024/01/14 08:08:08;;;;;;;4.25;4.00;;;;;;;-2.63;100.00;95110.91;4357368;32;20207;-57
2024/01/14 08:10:35;;;;;;;7.07;5.72;;;;;;;-2.58;100.00;95103.25;4352343;32;20196;-59
2024/01/14 08:13:03;;;;;;;10.05;5.55;;;;;;;-2.57;100.00;95103.03;4354239;32;20193;-59
2024/01/14 08:15:29;;;;;;;5.03;4.65;;;;;;;-2.39;100.00;95102.25;4328535;32;20212;-58
2024/01/14 08:17:56;;;;;;;7.72;6.97;;;;;;;-2.38;100.00;95084.84;4345878;32;20202;-58
2024/01/14 08:20:21;;;;;;;7.07;6.45;;;;;;;-2.40;100.00;95092.87;4326129;32;20275;-58
2024/01/14 08:22:48;;;;;;;5.23;4.50;;;;;;;-2.36;100.00;95088.81;4338885;32;20189;-59
2024/01/14 08:25:14;;;;;;;6.25;5.70;;;;;;;-2.68;100.00;95089.97;4347637;32;20184;-58
2024/01/14 08:27:41;;;;;;;4.23;3.37;;;;;;;-2.49;100.00;95089.75;4312680;32;20244;-59
2024/01/14 08:30:09;;;;;;;4.57;4.15;;;;;;;-2.36;100.00;95096.62;4353429;32;20193;-58
2024/01/14 08:32:34;;;;;;;4.90;4.53;;;;;;;-2.09;100.00;95095.28;4362402;32;20219;-60
2024/01/14 08:35:01;;;;;;;4.10;3.23;;;;;;;-2.66;100.00;95098.34;4347208;32;20359;-59
2024/01/14 08:37:31;;;;;;;5.80;5.37;;;;;;;-2.26;100.00;95089.09;4334321;32;20225;-60
2024/01/14 08:39:57;;;;;;;4.95;4.45;;;;;;;-2.31;100.00;95090.78;4345554;32;20260;-59
2024/01/14 08:42:23;;;;;;;2.97;2.87;;;;;;;-2.49;100.00;95084.56;4370831;32;20302;-60
2024/01/14 08:44:49;;;;;;;5.00;3.63;;;;;;;-2.33;100.00;95085.78;4355335;32;20192;-58
2024/01/14 08:47:14;;;;;;;5.35;4.45;;;;;;;-2.37;100.00;95079.44;4334641;32;20193;-59
2024/01/14 08:49:41;;;;;;;4.03;3.73;;;;;;;-2.37;100.00;95082.03;4332708;32;20285;-59
2024/01/14 08:52:08;;;;;;;5.45;4.95;;;;;;;-2.35;100.00;95084.44;4372162;32;20234;-58
2024/01/14 08:54:36;;;;;;;6.93;4.00;;;;;;;-2.30;100.00;95074.19;4361004;32;20249;-59
2024/01/14 08:57:03;;;;;;;4.85;4.43;;;;;;;-2.37;100.00;95063.88;4356333;32;20211;-58
2024/01/14 08:59:28;;;;;;;3.95;3.62;;;;;;;-2.43;100.00;95056.94;4345812;32;20223;-58
2024/01/14 09:01:55;;;;;;;3.97;3.47;;;;;;;-2.39;100.00;95063.28;4372109;32;20196;-59
2024/01/14 09:04:22;;;;;;;5.03;4.72;;;;;;;-2.57;100.00;95060.72;4355362;32;20207;-59
2024/01/14 09:06:48;;;;;;;3.90;3.60;;;;;;;-2.47;100.00;95059.19;4370472;32;20200;-59
2024/01/14 09:09:14;;;;;;;4.10;3.90;;;;;;;-2.26;100.00;95057.91;4366159;32;20181;-59
2024/01/14 09:11:45;;;;;;;4.23;3.90;;;;;;;-2.28;100.00;95048.75;4373645;32;20181;-58
2024/01/14 09:14:13;;;;;;;3.28;3.10;;;;;;;-2.05;100.00;95042.84;4377164;32;20185;-59
2024/01/14 09:16:38;;;;;;;3.62;3.40;;;;;;;-1.93;100.00;95043.69;4326389;32;20244;-58
2024/01/14 09:19:07;;;;;;;3.83;3.43;;;;;;;-2.12;100.00;95043.75;4323382;32;20274;-60
2024/01/14 09:21:33;;;;;;;4.12;3.83;;;;;;;-2.09;100.00;95043.31;4353416;32;20177;-59
2024/01/14 09:24:01;;;;;;;5.72;5.35;;;;;;;-1.89;100.00;95042.25;4369850;32;20216;-58
2024/01/14 09:26:27;;;;;;;5.15;4.75;;;;;;;-1.89;100.00;95040.44;4346804;32;20298;-59
2024/01/14 09:28:54;;;;;;;4.37;4.07;;;;;;;-1.82;100.00;95035.91;4347537;32;21948;-59
2024/01/14 09:31:21;;;;;;;3.50;3.28;;;;;;;-1.70;100.00;95032.56;4374594;32;20196;-59
2024/01/14 09:33:47;;;;;;;11.70;6.05;;;;;;;-1.77;100.00;95036.03;4372253;32;20195;-59
2024/01/14 09:36:13;;;;;;;5.67;4.90;;;;;;;-2.00;100.00;95022.19;4375096;32;20172;-58
2024/01/14 09:38:41;;;;;;;6.07;4.87;;;;;;;-1.92;100.00;95029.69;4364148;32;20236;-59
2024/01/14 09:41:17;;;;;;;4.60;4.30;;;;;;;-1.76;100.00;95026.44;4332261;32;20196;-59
2024/01/14 09:43:49;;;;;;;3.65;3.45;;;;;;;-1.78;100.00;95028.47;4373193;32;20220;-59
2024/01/14 09:46:18;;;;;;;4.57;4.28;;;;;;;-1.63;100.00;95025.44;4332872;32;20275;-59
2024/01/14 09:48:47;;;;;;;5.87;5.37;;;;;;;-1.66;100.00;95024.06;4313495;32;20208;-59
2024/01/14 09:51:12;;;;;;;4.60;4.30;;;;;;;-1.83;100.00;95036.91;4349044;32;20196;-59
2024/01/14 09:53:40;;;;;;;3.33;3.13;;;;;;;-1.84;100.00;95029.34;4358216;32;20184;-59
2024/01/14 09:56:09;;;;;;;7.28;5.18;;;;;;;-1.82;100.00;95035.12;4343250;32;20243;-61
2024/01/14 09:58:36;;;;;;;5.10;4.37;;;;;;;-1.62;100.00;95033.00;4357347;32;20247;-59
2024/01/14 10:01:05;;;;;;;5.53;5.10;;;;;;;-1.43;100.00;95036.28;4352949;32;20195;-59
2024/01/14 10:03:31;;;;;;;5.10;4.80;;;;;;;-1.31;100.00;95034.50;4333336;32;20201;-59
2024/01/14 10:05:57;;;;;;;4.53;4.13;;;;;;;-1.36;100.00;95025.78;4350483;32;20404;-59
2024/01/14 10:08:22;;;;;;;4.97;4.57;;;;;;;-1.42;100.00;95027.47;4325860;32;20193;-59
2024/01/14 10:10:54;;;;;;;4.63;4.33;;;;;;;-1.32;100.00;95013.91;4363262;32;20185;-58
2024/01/14 10:13:21;;;;;;;6.57;5.78;;;;;;;-1.59;100.00;95013.56;4347148;32;20200;-59
2024/01/14 10:15:48;;;;;;;5.03;4.57;;;;;;;-1.26;100.00;95000.81;4342342;32;20285;-58
2024/01/14 10:18:13;;;;;;;3.35;2.85;;;;;;;-1.13;100.00;94989.34;4339450;32;20190;-59
2024/01/14 10:20:40;;;;;;;4.20;3.93;;;;;;;-0.80;99.84;94986.91;4352375;32;20219;-59
2024/01/14 10:23:06;;;;;;;9.00;4.62;;;;;;;-1.00;99.58;94983.09;4361505;32;20211;-59
2024/01/14 10:25:31;;;;;;;5.40;5.00;;;;;;;-1.18;100.00;94973.62;4329112;32;20173;-59
2024/01/14 10:28:03;;;;;;;5.03;4.62;;;;;;;-1.42;100.00;94984.06;4357209;32;20208;-59
2024/01/14 10:30:28;;;;;;;5.07;4.78;;;;;;;-1.49;100.00;94972.22;4383599;32;20207;-59
2024/01/14 10:32:55;;;;;;;5.90;5.50;;;;;;;-1.63;100.00;94973.44;4346816;32;20207;-59
2024/01/14 10:35:24;;;;;;;7.50;3.80;;;;;;;-1.28;100.00;94969.03;4353762;32;20266;-59
2024/01/14 10:37:52;;;;;;;4.80;4.55;;;;;;;-1.08;100.00;94960.84;4340720;32;20283;-59
2024/01/14 10:40:18;;;;;;;5.00;4.62;;;;;;;-1.01;100.00;94953.69;4341398;32;20212;-59
2024/01/14 10:42:45;;;;;;;5.07;4.67;;;;;;;-0.98;100.00;94945.41;4376915;32;20184;-59
2024/01/14 10:45:11;;;;;;;4.53;4.22;;;;;;;-1.09;100.00;94939.25;4384118;32;20208;-58
2024/01/14 10:47:42;;;;;;;5.55;5.15;;;;;;;-1.21;100.00;94935.06;4340007;32;20232;-59
2024/01/14 10:50:13;;;;;;;5.12;4.82;;;;;;;-1.19;100.00;94939.03;4369132;32;20208;-59
2024/01/14 10:52:49;;;;;;;3.20;3.00;;;;;;;-1.07;100.00;94931.19;4376508;32;20204;-60
2024/01/14 10:55:33;;;;;;;6.82;6.12;;;;;;;-1.01;100.00;94925.06;4379009;32;20168;-59
2024/01/14 10:58:03;;;;;;;4.82;4.50;;;;;;;-0.91;99.46;94912.25;4372925;32;20235;-58
2024/01/14 11:00:34;;;;;;;6.18;5.40;;;;;;;-0.88;99.20;94913.59;4353089;32;20223;-59
2024/01/14 11:03:03;;;;;;;8.55;5.03;;;;;;;-1.11;98.97;94914.47;4349507;32;20192;-59
2024/01/14 11:05:29;;;;;;;7.00;5.78;;;;;;;-0.99;99.44;94902.19;4351308;32;20232;-59
2024/01/14 11:07:56;;;;;;;4.30;4.03;;;;;;;-0.81;98.22;94903.81;4354715;32;20280;-58
2024/01/14 11:10:23;;;;;;;5.35;4.97;;;;;;;-0.82;98.02;94900.44;4353392;32;20266;-59
2024/01/14 11:13:13;;;;;;;6.03;5.53;;;;;;;-0.77;97.42;94897.94;4367594;32;20196;-59
2024/01/14 11:16:20;;;;;;;3.55;3.30;;;;;;;-0.80;97.35;94895.78;4349463;32;20193;-59
2024/01/14 11:18:52;;;;;;;9.43;6.60;;;;;;;-0.83;97.79;94885.84;4312371;33;20182;-58
2024/01/14 11:21:48;;;;;;;4.37;4.05;;;;;;;-0.74;97.08;94883.66;4348243;32;20188;-59
2024/01/14 11:24:14;;;;;;;5.55;4.70;;;;;;;-0.80;97.41;94869.75;4379900;32;20258;-58